createdAt,value
2023-10-02T00:00:09.443Z,43.50
2023-10-02T00:01:53.583Z,41.91
2023-10-02T00:03:31.016Z,41.80
2023-10-02T00:05:09.065Z,43.02
2023-10-02T00:06:45.763Z,43.18
2023-10-02T00:08:34.003Z,43.98
2023-10-02T00:10:10.652Z,42.98
2023-10-02T00:11:47.857Z,43.17
2023-10-02T00:13:23.539Z,42.15
2023-10-02T00:15:14.659Z,41.11
2023-10-02T00:17:02.411Z,42.46
2023-10-02T00:18:39.113Z,41.89
2023-10-02T00:20:24.164Z,42.26
2023-10-02T00:22:10.525Z,42.87
2023-10-02T00:24:01.608Z,43.07
2023-10-02T00:25:54.006Z,43.27
2023-10-02T00:27:33.109Z,42.94
2023-10-02T00:29:12.013Z,43.87
2023-10-02T00:30:47.841Z,44.46
2023-10-02T00:32:24.060Z,43.77
2023-10-02T00:33:59.982Z,43.94
2023-10-02T00:35:52.736Z,42.85
2023-10-02T00:37:48.641Z,44.15
2023-10-02T00:39:32.718Z,42.74
2023-10-02T00:41:10.420Z,42.93
2023-10-02T00:42:47.628Z,42.50
2023-10-02T00:44:24.623Z,43.35
2023-10-02T00:46:01.500Z,44.04
2023-10-02T00:47:40.868Z,42.77
2023-10-02T00:49:30.370Z,43.46
2023-10-02T00:51:13.434Z,43.84
2023-10-02T00:53:05.854Z,44.55
2023-10-02T00:54:41.782Z,44.56
2023-10-02T00:56:22.906Z,44.52
2023-10-02T00:58:00.339Z,43.71
2023-10-02T00:59:40.034Z,44.14
2023-10-02T01:01:16.645Z,44.05
2023-10-02T01:03:00.030Z,45.07
2023-10-02T01:04:38.711Z,42.76
2023-10-02T01:06:14.686Z,43.75
2023-10-02T01:07:56.616Z,42.29
2023-10-02T01:09:36.189Z,44.38
2023-10-02T01:11:16.032Z,44.57
2023-10-02T01:12:55.186Z,44.06
2023-10-02T01:14:50.684Z,44.75
2023-10-02T01:16:26.792Z,44.24
2023-10-02T01:18:29.437Z,44.27
2023-10-02T01:20:11.989Z,43.50
2023-10-02T01:21:49.384Z,44.46
2023-10-02T01:23:30.335Z,44.65
2023-10-02T01:25:17.479Z,44.56
2023-10-02T01:26:56.967Z,45.40
2023-10-02T01:28:53.201Z,44.01
2023-10-02T01:30:29.548Z,43.24
2023-10-02T01:32:09.726Z,43.82
2023-10-02T01:33:47.154Z,44.19
2023-10-02T01:35:24.519Z,44.51
2023-10-02T01:37:23.715Z,43.78
2023-10-02T01:39:18.311Z,44.95
2023-10-02T01:41:13.375Z,43.60
2023-10-02T01:42:49.817Z,42.10
2023-10-02T01:44:26.429Z,42.69
2023-10-02T01:46:02.712Z,42.61
2023-10-02T01:47:43.571Z,42.54
2023-10-02T01:49:29.939Z,43.99
2023-10-02T01:51:29.699Z,43.40
2023-10-02T01:53:08.323Z,44.39
2023-10-02T01:54:46.849Z,44.63
2023-10-02T01:56:24.918Z,44.15
2023-10-02T01:58:19.012Z,43.07
2023-10-02T02:00:15.131Z,42.62
2023-10-02T02:02:00.259Z,44.02
2023-10-02T02:03:36.900Z,44.62
2023-10-02T02:05:16.812Z,45.29
2023-10-02T02:06:54.919Z,44.34
2023-10-02T02:08:37.236Z,43.09
2023-10-02T02:10:12.981Z,43.50
2023-10-02T02:12:07.898Z,44.16
2023-10-02T02:13:54.352Z,43.65
2023-10-02T02:15:31.095Z,45.22
2023-10-02T02:17:13.876Z,45.99
2023-10-02T02:18:52.976Z,45.37
2023-10-02T02:20:46.174Z,45.58
2023-10-02T02:22:34.806Z,45.25
2023-10-02T02:24:10.834Z,46.04
2023-10-02T02:25:46.790Z,45.97
2023-10-02T02:27:23.951Z,44.13
2023-10-02T02:29:00.485Z,44.78
2023-10-02T02:30:42.789Z,46.67
2023-10-02T02:32:21.646Z,45.00
2023-10-02T02:34:02.167Z,45.88
2023-10-02T02:35:41.121Z,45.96
2023-10-02T02:37:18.848Z,44.93
2023-10-02T02:39:18.854Z,46.63
2023-10-02T02:41:07.416Z,44.88
2023-10-02T02:42:43.714Z,45.97
2023-10-02T02:44:37.992Z,44.88
2023-10-02T02:46:19.276Z,44.57
2023-10-02T02:47:56.691Z,46.32
2023-10-02T02:49:34.448Z,44.50
2023-10-02T02:51:17.174Z,46.52
2023-10-02T02:53:12.860Z,45.11
2023-10-02T02:55:01.510Z,44.42
2023-10-02T02:56:37.946Z,45.08
2023-10-02T02:58:14.278Z,45.14
2023-10-02T02:59:50.144Z,44.58
2023-10-02T03:01:26.754Z,46.43
2023-10-02T03:03:04.640Z,46.78
2023-10-02T03:04:40.946Z,47.20
2023-10-02T03:06:19.297Z,45.34
2023-10-02T03:07:58.527Z,47.11
2023-10-02T03:09:36.849Z,45.27
2023-10-02T03:11:13.340Z,46.02
2023-10-02T03:12:49.987Z,45.33
2023-10-02T03:14:26.906Z,44.69
2023-10-02T03:16:10.935Z,43.66
2023-10-02T03:17:47.964Z,44.79
2023-10-02T03:19:24.486Z,44.73
2023-10-02T03:21:16.493Z,45.88
2023-10-02T03:22:58.099Z,45.97
2023-10-02T03:24:35.724Z,45.18
2023-10-02T03:26:29.419Z,46.15
2023-10-02T03:28:06.013Z,46.10
2023-10-02T03:29:42.914Z,46.31
2023-10-02T03:31:37.130Z,47.14
2023-10-02T03:33:36.106Z,46.12
2023-10-02T03:35:14.424Z,45.33
2023-10-02T03:36:51.616Z,46.01
2023-10-02T03:38:28.387Z,45.85
2023-10-02T03:40:16.004Z,47.24
2023-10-02T03:41:57.970Z,46.36
2023-10-02T03:43:37.367Z,47.44
2023-10-02T03:45:14.790Z,47.40
2023-10-02T03:46:53.211Z,46.28
2023-10-02T03:48:30.929Z,44.57
2023-10-02T03:50:12.453Z,44.83
2023-10-02T03:51:51.075Z,45.41
2023-10-02T03:53:33.026Z,46.57
2023-10-02T03:55:20.249Z,45.48
2023-10-02T03:56:57.332Z,44.89
2023-10-02T03:58:40.807Z,46.33
2023-10-02T04:00:24.177Z,46.67
2023-10-02T04:02:21.506Z,45.24
2023-10-02T04:04:21.341Z,44.90
2023-10-02T04:05:57.684Z,46.88
2023-10-02T04:07:33.616Z,46.37
2023-10-02T04:09:29.729Z,45.80
2023-10-02T04:11:06.062Z,46.84
2023-10-02T04:12:52.641Z,46.70
2023-10-02T04:14:34.697Z,46.75
2023-10-02T04:16:28.809Z,45.87
2023-10-02T04:18:06.964Z,47.21
2023-10-02T04:19:54.557Z,46.45
2023-10-02T04:21:35.685Z,46.12
2023-10-02T04:23:23.205Z,46.37
2023-10-02T04:25:09.143Z,45.93
2023-10-02T04:26:46.698Z,46.95
2023-10-02T04:28:29.565Z,47.16
2023-10-02T04:30:14.590Z,47.10
2023-10-02T04:32:10.797Z,46.71
2023-10-02T04:33:54.174Z,47.64
2023-10-02T04:35:54.612Z,47.30
2023-10-02T04:37:33.978Z,45.04
2023-10-02T04:39:32.900Z,45.32
2023-10-02T04:41:28.193Z,46.39
2023-10-02T04:43:24.330Z,46.26
2023-10-02T04:45:00.218Z,47.60
2023-10-02T04:46:36.824Z,45.32
2023-10-02T04:48:13.701Z,47.33
2023-10-02T04:50:06.759Z,47.50
2023-10-02T04:51:48.747Z,47.39
2023-10-02T04:53:26.294Z,46.84
2023-10-02T04:55:09.158Z,47.40
2023-10-02T04:56:48.685Z,47.39
2023-10-02T04:58:29.518Z,46.75
2023-10-02T05:00:21.983Z,46.71
2023-10-02T05:02:17.892Z,46.19
2023-10-02T05:03:57.618Z,45.37
2023-10-02T05:05:36.625Z,46.41
2023-10-02T05:07:17.340Z,48.21
2023-10-02T05:08:55.850Z,46.94
2023-10-02T05:10:31.850Z,47.78
2023-10-02T05:12:08.559Z,48.23
2023-10-02T05:13:55.917Z,47.46
2023-10-02T05:15:31.876Z,46.28
2023-10-02T05:17:20.432Z,47.16
2023-10-02T05:18:57.100Z,48.26
2023-10-02T05:20:40.421Z,48.12
2023-10-02T05:22:18.188Z,47.57
2023-10-02T05:24:03.121Z,48.33
2023-10-02T05:25:39.260Z,47.79
2023-10-02T05:27:29.540Z,46.62
2023-10-02T05:29:10.761Z,47.40
2023-10-02T05:30:47.163Z,47.36
2023-10-02T05:32:25.399Z,47.26
2023-10-02T05:34:03.094Z,47.10
2023-10-02T05:35:47.340Z,47.05
2023-10-02T05:37:25.263Z,46.91
2023-10-02T05:39:18.629Z,47.24
2023-10-02T05:41:00.918Z,47.90
2023-10-02T05:42:39.391Z,47.56
2023-10-02T05:44:25.193Z,48.46
2023-10-02T05:46:09.121Z,45.78
2023-10-02T05:47:50.860Z,46.94
2023-10-02T05:49:28.518Z,46.96
2023-10-02T05:51:14.956Z,46.22
2023-10-02T05:52:50.958Z,45.91
2023-10-02T05:54:28.357Z,47.39
2023-10-02T05:56:12.923Z,45.81
2023-10-02T05:57:49.319Z,48.30
2023-10-02T05:59:27.527Z,46.77
2023-10-02T06:01:06.211Z,46.48
2023-10-02T06:03:00.953Z,49.07
2023-10-02T06:04:38.310Z,47.33
2023-10-02T06:06:23.420Z,47.80
2023-10-02T06:08:01.821Z,46.49
2023-10-02T06:09:48.017Z,47.20
2023-10-02T06:11:28.534Z,45.22
2023-10-02T06:13:08.214Z,45.58
2023-10-02T06:14:45.926Z,46.89
2023-10-02T06:16:25.587Z,45.85
2023-10-02T06:18:03.823Z,46.52
2023-10-02T06:19:46.860Z,47.43
2023-10-02T06:21:24.006Z,48.11
2023-10-02T06:23:08.196Z,46.81
2023-10-02T06:24:45.064Z,46.80
2023-10-02T06:26:21.412Z,46.53
2023-10-02T06:28:18.029Z,47.11
2023-10-02T06:29:55.012Z,46.09
2023-10-02T06:31:43.930Z,47.79
2023-10-02T06:33:23.755Z,47.10
2023-10-02T06:35:02.481Z,45.94
2023-10-02T06:36:47.981Z,45.35
2023-10-02T06:38:24.011Z,47.10
2023-10-02T06:40:16.339Z,46.70
2023-10-02T06:41:54.278Z,47.75
2023-10-02T06:43:34.912Z,46.56
2023-10-02T06:45:17.726Z,47.30
2023-10-02T06:46:58.157Z,47.46
2023-10-02T06:48:41.228Z,49.74
2023-10-02T06:50:25.779Z,48.14
2023-10-02T06:52:14.367Z,48.96
2023-10-02T06:53:50.066Z,47.31
2023-10-02T06:55:29.511Z,48.03
2023-10-02T06:57:13.667Z,48.46
2023-10-02T06:58:54.611Z,48.92
2023-10-02T07:00:49.870Z,48.82
2023-10-02T07:02:29.857Z,47.18
2023-10-02T07:04:11.568Z,49.00
2023-10-02T07:05:50.167Z,46.64
2023-10-02T07:07:32.286Z,46.06
2023-10-02T07:09:15.878Z,47.81
2023-10-02T07:10:52.524Z,46.80
2023-10-02T07:12:30.072Z,48.55
2023-10-02T07:14:08.751Z,46.17
2023-10-02T07:15:45.181Z,46.59
2023-10-02T07:17:21.066Z,45.48
2023-10-02T07:19:00.510Z,46.31
2023-10-02T07:20:44.764Z,45.55
2023-10-02T07:22:25.978Z,46.20
2023-10-02T07:24:05.085Z,45.27
2023-10-02T07:25:43.649Z,45.17
2023-10-02T07:27:26.324Z,44.33
2023-10-02T07:29:02.814Z,44.59
2023-10-02T07:30:39.499Z,46.77
2023-10-02T07:32:15.687Z,47.09
2023-10-02T07:33:57.808Z,44.16
2023-10-02T07:35:36.403Z,44.00
2023-10-02T07:37:15.533Z,44.19
2023-10-02T07:38:51.453Z,44.40
2023-10-02T07:40:48.748Z,42.95
2023-10-02T07:42:33.458Z,42.36
2023-10-02T07:44:12.757Z,43.01
2023-10-02T07:46:16.691Z,43.45
2023-10-02T07:48:12.880Z,42.44
2023-10-02T07:49:57.418Z,45.38
2023-10-02T07:51:40.646Z,45.29
2023-10-02T07:53:16.625Z,44.91
2023-10-02T07:54:52.775Z,44.86
2023-10-02T07:56:31.102Z,42.96
2023-10-02T07:58:07.351Z,43.25
2023-10-02T07:59:45.783Z,43.47
2023-10-02T08:01:24.003Z,44.02
2023-10-02T08:03:04.495Z,43.15
2023-10-02T08:04:49.802Z,43.58
2023-10-02T08:06:35.603Z,42.71
2023-10-02T08:08:12.360Z,43.31
2023-10-02T08:09:54.407Z,44.53
2023-10-02T08:11:30.119Z,43.32
2023-10-02T08:13:07.916Z,43.92
2023-10-02T08:14:49.079Z,42.71
2023-10-02T08:16:25.495Z,43.62
2023-10-02T08:18:01.315Z,42.73
2023-10-02T08:19:40.588Z,43.03
2023-10-02T08:21:16.372Z,42.92
2023-10-02T08:22:56.901Z,43.78
2023-10-02T08:24:32.809Z,43.28
2023-10-02T08:26:25.771Z,43.45
2023-10-02T08:28:03.278Z,43.48
2023-10-02T08:29:40.267Z,42.69
2023-10-02T08:31:16.481Z,44.50
2023-10-02T08:32:55.231Z,43.24
2023-10-02T08:34:31.617Z,44.02
2023-10-02T08:36:11.716Z,42.88
2023-10-02T08:37:47.869Z,41.55
2023-10-02T08:39:25.043Z,42.25
2023-10-02T08:41:09.067Z,43.89
2023-10-02T08:42:48.887Z,42.39
2023-10-02T08:44:24.706Z,43.43
2023-10-02T08:46:02.556Z,43.06
2023-10-02T08:47:40.358Z,41.73
2023-10-02T08:49:18.650Z,41.81
2023-10-02T08:51:00.893Z,41.61
2023-10-02T08:52:49.665Z,41.99
2023-10-02T08:54:29.603Z,41.54
2023-10-02T08:56:26.083Z,41.45
2023-10-02T08:58:21.099Z,41.96
2023-10-02T09:00:19.002Z,41.79
2023-10-02T09:02:18.767Z,42.06
2023-10-02T09:04:13.414Z,41.63
2023-10-02T09:05:52.245Z,43.29
2023-10-02T09:07:48.256Z,42.74
2023-10-02T09:09:28.203Z,40.62
2023-10-02T09:11:08.737Z,41.45
2023-10-02T09:12:54.036Z,40.65
2023-10-02T09:14:33.633Z,39.99
2023-10-02T09:16:16.439Z,39.95
2023-10-02T09:17:52.682Z,39.81
2023-10-02T09:19:32.472Z,39.16
2023-10-02T09:21:17.871Z,39.80
2023-10-02T09:23:10.083Z,40.54
2023-10-02T09:25:07.575Z,38.39
2023-10-02T09:26:45.460Z,38.75
2023-10-02T09:28:43.745Z,38.05
2023-10-02T09:30:23.740Z,39.80
2023-10-02T09:32:06.106Z,39.55
2023-10-02T09:33:53.802Z,38.31
2023-10-02T09:36:15.018Z,38.52
2023-10-02T09:38:05.898Z,38.81
2023-10-02T09:39:43.772Z,37.49
2023-10-02T09:41:22.272Z,37.04
2023-10-02T09:43:13.071Z,37.12
2023-10-02T09:44:53.428Z,38.17
2023-10-02T09:46:33.993Z,38.27
2023-10-02T09:48:29.801Z,37.10
2023-10-02T09:50:25.880Z,36.61
2023-10-02T09:52:16.961Z,36.37
2023-10-02T09:54:19.780Z,36.34
2023-10-02T09:56:17.129Z,33.97
2023-10-02T09:57:56.944Z,33.90
2023-10-02T09:59:56.996Z,33.21
2023-10-02T10:01:36.593Z,36.29
2023-10-02T10:03:26.984Z,34.44
2023-10-02T10:05:14.333Z,35.31
2023-10-02T10:07:08.986Z,34.40
2023-10-02T10:09:15.780Z,35.05
2023-10-02T10:10:54.416Z,34.60
2023-10-02T10:12:57.136Z,32.65
2023-10-02T10:14:40.146Z,36.65
2023-10-02T10:16:22.806Z,33.67
2023-10-02T10:17:59.285Z,33.86
2023-10-02T10:19:35.611Z,33.99
2023-10-02T10:22:02.341Z,33.27
2023-10-02T10:23:38.774Z,31.67
2023-10-02T10:25:23.572Z,34.42
2023-10-02T10:27:00.082Z,33.81
2023-10-02T10:28:53.091Z,32.60
2023-10-02T10:30:30.400Z,34.20
2023-10-02T10:32:26.454Z,31.14
2023-10-02T10:34:03.247Z,33.35
2023-10-02T10:35:54.058Z,32.03
2023-10-02T10:37:49.774Z,30.14
2023-10-02T10:39:56.860Z,30.94
2023-10-02T10:41:38.041Z,32.70
2023-10-02T10:43:16.057Z,32.74
2023-10-02T10:44:59.191Z,29.45
2023-10-02T10:46:39.249Z,29.40
2023-10-02T10:48:25.119Z,30.37
2023-10-02T10:50:30.161Z,30.49
2023-10-02T10:52:26.297Z,29.65
2023-10-02T10:54:45.973Z,31.37
2023-10-02T10:56:30.080Z,29.80
2023-10-02T10:58:12.387Z,29.38
2023-10-02T10:59:49.154Z,29.66
2023-10-02T11:01:25.791Z,29.55
2023-10-02T11:03:22.149Z,28.93
2023-10-02T11:04:58.614Z,30.06
2023-10-02T11:06:46.696Z,30.94
2023-10-02T11:08:30.769Z,28.80
2023-10-02T11:10:22.657Z,29.92
2023-10-02T11:11:58.425Z,28.13
2023-10-02T11:14:00.707Z,28.72
2023-10-02T11:15:49.275Z,28.82
2023-10-02T11:17:35.045Z,28.54
2023-10-02T11:19:23.953Z,28.58
2023-10-02T11:21:00.300Z,28.96
2023-10-02T11:22:54.094Z,27.69
2023-10-02T11:24:31.038Z,27.42
2023-10-02T11:26:16.002Z,29.35
2023-10-02T11:28:01.252Z,28.92
2023-10-02T11:29:43.352Z,27.43
2023-10-02T11:31:47.701Z,26.88
2023-10-02T11:33:30.786Z,28.12
2023-10-02T11:35:09.624Z,28.91
2023-10-02T11:36:57.684Z,28.80
2023-10-02T11:38:33.846Z,27.79
2023-10-02T11:40:10.590Z,28.08
2023-10-02T11:41:48.779Z,29.11
2023-10-02T11:43:24.822Z,27.18
2023-10-02T11:45:00.791Z,27.79
2023-10-02T11:46:37.211Z,27.91
2023-10-02T11:48:14.813Z,26.34
2023-10-02T11:49:50.555Z,27.29
2023-10-02T11:51:33.031Z,27.35
2023-10-02T11:53:09.072Z,27.60
2023-10-02T11:54:45.528Z,26.69
2023-10-02T11:56:22.652Z,26.06
2023-10-02T11:57:58.574Z,26.63
2023-10-02T11:59:34.749Z,25.91
2023-10-02T12:01:11.028Z,25.47
2023-10-02T12:02:48.605Z,25.42
2023-10-02T12:04:24.487Z,27.00
2023-10-02T12:06:00.514Z,26.87
2023-10-02T12:07:36.822Z,26.25
2023-10-02T12:09:19.863Z,27.63
2023-10-02T12:10:58.592Z,27.01
2023-10-02T12:12:34.876Z,25.73
2023-10-02T12:14:11.168Z,26.96
2023-10-02T12:15:51.998Z,26.03
2023-10-02T12:17:27.980Z,27.04
2023-10-02T12:19:04.092Z,25.44
2023-10-02T12:20:44.866Z,27.21
2023-10-02T12:22:21.389Z,28.57
2023-10-02T12:24:00.969Z,26.01
2023-10-02T12:25:38.516Z,25.82
2023-10-02T12:27:17.481Z,25.11
2023-10-02T12:28:53.342Z,25.07
2023-10-02T12:30:30.858Z,27.72
2023-10-02T12:32:07.888Z,25.72
2023-10-02T12:33:45.408Z,25.17
2023-10-02T12:35:21.318Z,25.47
2023-10-02T12:36:57.301Z,25.27
2023-10-02T12:38:33.629Z,26.92
2023-10-02T12:40:20.541Z,25.75
2023-10-02T12:41:56.454Z,26.20
2023-10-02T12:43:32.681Z,25.38
2023-10-02T12:45:09.076Z,26.35
2023-10-02T12:46:45.797Z,25.52
2023-10-02T12:48:21.672Z,25.90
2023-10-02T12:49:57.765Z,25.90
2023-10-02T12:51:33.660Z,26.60
2023-10-02T12:53:12.225Z,25.42
2023-10-02T12:54:50.304Z,25.29
2023-10-02T12:56:28.958Z,25.44
2023-10-02T12:58:07.962Z,26.04
2023-10-02T12:59:45.970Z,27.23
2023-10-02T13:01:31.906Z,28.49
2023-10-02T13:03:09.916Z,25.88
2023-10-02T13:04:45.783Z,24.98
2023-10-02T13:06:22.998Z,25.46
2023-10-02T13:07:58.844Z,23.83
2023-10-02T13:09:35.216Z,24.29
2023-10-02T13:11:15.267Z,24.84
2023-10-02T13:12:51.703Z,25.45
2023-10-02T13:14:27.410Z,26.30
2023-10-02T13:16:03.519Z,26.62
2023-10-02T13:17:40.204Z,25.74
2023-10-02T13:19:17.171Z,24.90
2023-10-02T13:20:56.742Z,25.74
2023-10-02T13:22:34.676Z,24.67
2023-10-02T13:24:17.609Z,25.26
2023-10-02T13:25:56.029Z,25.62
2023-10-02T13:27:33.460Z,26.00
2023-10-02T13:29:09.792Z,25.04
2023-10-02T13:30:45.545Z,25.56
2023-10-02T13:32:21.900Z,24.64
2023-10-02T13:34:02.251Z,24.83
2023-10-02T13:37:56.079Z,26.38
2023-10-02T13:39:32.580Z,24.87
2023-10-02T13:41:14.129Z,25.07
2023-10-02T13:42:51.380Z,24.90
2023-10-02T13:44:33.177Z,24.90
2023-10-02T13:46:11.768Z,24.32
2023-10-02T13:47:51.385Z,23.77
2023-10-02T13:49:27.574Z,25.48
2023-10-02T13:51:05.017Z,26.54
2023-10-02T13:54:17.203Z,26.22
2023-10-02T13:55:53.488Z,24.85
2023-10-02T13:57:29.226Z,25.50
2023-10-02T13:59:05.856Z,24.46
2023-10-02T14:00:42.553Z,23.65
2023-10-02T14:02:19.120Z,24.90
2023-10-02T14:03:56.478Z,25.35
2023-10-02T14:05:37.779Z,24.79
2023-10-02T14:07:14.871Z,25.57
2023-10-02T14:08:53.902Z,25.63
2023-10-02T14:10:31.514Z,26.62
2023-10-02T14:12:07.686Z,25.84
2023-10-02T14:13:43.673Z,25.84
2023-10-02T14:15:20.025Z,25.30
2023-10-02T14:16:55.996Z,25.74
2023-10-02T14:18:32.081Z,25.00
2023-10-02T14:20:14.382Z,24.45
2023-10-02T14:21:50.902Z,24.60
2023-10-02T14:23:28.090Z,26.19
2023-10-02T14:25:08.653Z,25.68
2023-10-02T14:26:44.688Z,25.38
2023-10-02T14:28:20.937Z,24.51
2023-10-02T14:29:56.845Z,24.85
2023-10-02T14:31:33.844Z,25.02
2023-10-02T14:33:09.898Z,24.51
2023-10-02T14:34:46.539Z,24.46
2023-10-02T14:36:22.342Z,24.83
2023-10-02T14:37:58.703Z,24.98
2023-10-02T14:39:38.187Z,25.22
2023-10-02T14:41:14.588Z,24.87
2023-10-02T14:42:50.549Z,26.43
2023-10-02T14:44:26.465Z,24.96
2023-10-02T14:46:02.578Z,24.93
2023-10-02T14:47:38.909Z,25.64
2023-10-02T14:49:14.786Z,25.32
2023-10-02T14:50:50.820Z,24.76
2023-10-02T14:52:27.252Z,25.50
2023-10-02T14:54:04.521Z,25.26
2023-10-02T14:55:51.021Z,25.41
2023-10-02T14:57:28.399Z,25.17
2023-10-02T14:59:06.538Z,25.46
2023-10-02T15:00:43.166Z,24.76
2023-10-02T15:02:19.429Z,26.01
2023-10-02T15:03:57.550Z,25.59
2023-10-02T15:05:33.873Z,25.27
2023-10-02T15:07:10.176Z,25.20
2023-10-02T15:08:45.958Z,26.28
2023-10-02T15:10:25.362Z,25.16
2023-10-02T15:12:01.092Z,25.41
2023-10-02T15:13:38.802Z,25.82
2023-10-02T15:15:17.420Z,25.01
2023-10-02T15:16:53.547Z,24.47
2023-10-02T15:18:29.370Z,24.88
2023-10-02T15:20:06.141Z,25.38
2023-10-02T15:21:44.845Z,24.98
2023-10-02T15:23:21.944Z,25.03
2023-10-02T15:24:58.070Z,25.70
2023-10-02T15:26:34.819Z,25.99
2023-10-02T15:28:10.671Z,25.58
2023-10-02T15:29:47.278Z,26.29
2023-10-02T15:31:23.060Z,26.23
2023-10-02T15:33:00.493Z,25.43
2023-10-02T15:34:36.624Z,26.33
2023-10-02T15:36:17.846Z,26.18
2023-10-02T15:37:56.717Z,26.61
2023-10-02T15:39:33.111Z,26.46
2023-10-02T15:41:27.215Z,25.65
2023-10-02T15:43:04.107Z,26.18
2023-10-02T15:44:44.204Z,25.92
2023-10-02T15:46:20.573Z,25.92
2023-10-02T15:47:57.520Z,26.56
2023-10-02T15:49:33.609Z,25.93
2023-10-02T15:51:10.106Z,26.56
2023-10-02T15:52:50.094Z,27.64
2023-10-02T15:54:27.810Z,26.57
2023-10-02T15:56:03.742Z,26.13
2023-10-02T15:57:44.312Z,27.27
2023-10-02T15:59:20.734Z,26.39
2023-10-02T16:00:58.840Z,26.30
2023-10-02T16:02:41.121Z,26.53
2023-10-02T16:04:19.102Z,25.98
2023-10-02T16:05:55.422Z,26.62
2023-10-02T16:07:31.670Z,26.66
2023-10-02T16:09:07.633Z,27.14
2023-10-02T16:10:43.415Z,27.57
2023-10-02T16:12:20.066Z,27.66
2023-10-02T16:13:58.623Z,27.49
2023-10-02T16:15:37.232Z,28.43
2023-10-02T16:17:13.204Z,28.56
2023-10-02T16:18:49.467Z,29.37
2023-10-02T16:20:26.151Z,27.97
2023-10-02T16:22:02.260Z,28.33
2023-10-02T16:23:42.982Z,28.23
2023-10-02T16:25:21.370Z,28.64
2023-10-02T16:26:58.022Z,28.51
2023-10-02T16:28:35.483Z,29.92
2023-10-02T16:30:13.640Z,30.06
2023-10-02T16:31:49.932Z,30.17
2023-10-02T16:33:26.113Z,29.82
2023-10-02T16:35:07.089Z,28.57
2023-10-02T16:36:43.511Z,29.83
2023-10-02T16:38:21.070Z,30.51
2023-10-02T16:40:01.878Z,29.88
2023-10-02T16:41:38.668Z,29.22
2023-10-02T16:43:14.610Z,28.79
2023-10-02T16:44:50.893Z,28.84
2023-10-02T16:46:27.399Z,29.19
2023-10-02T16:48:04.776Z,29.66
2023-10-02T16:49:46.739Z,29.77
2023-10-02T16:51:23.301Z,29.71
2023-10-02T16:52:59.669Z,31.38
2023-10-02T16:54:35.803Z,31.72
2023-10-02T16:56:15.647Z,30.61
2023-10-02T16:57:52.761Z,30.60
2023-10-02T16:59:30.983Z,30.75
2023-10-02T17:01:11.427Z,30.19
2023-10-02T17:02:47.530Z,31.59
2023-10-02T17:04:27.861Z,31.59
2023-10-02T17:06:16.561Z,32.27
2023-10-02T17:07:52.958Z,32.21
2023-10-02T17:09:30.514Z,32.89
2023-10-02T17:11:14.923Z,33.05
2023-10-02T17:12:53.236Z,33.23
2023-10-02T17:14:29.186Z,33.17
2023-10-02T17:16:05.292Z,32.65
2023-10-02T17:17:46.212Z,33.30
2023-10-02T17:19:24.369Z,33.59
2023-10-02T17:21:00.852Z,33.53
2023-10-02T17:22:40.473Z,33.45
2023-10-02T17:24:17.005Z,32.88
2023-10-02T17:25:52.868Z,33.91
2023-10-02T17:27:28.720Z,32.95
2023-10-02T17:29:05.160Z,35.00
2023-10-02T17:30:41.687Z,35.45
2023-10-02T17:32:17.635Z,33.52
2023-10-02T17:33:53.674Z,34.86
2023-10-02T17:35:29.496Z,34.99
2023-10-02T17:37:06.909Z,33.39
2023-10-02T17:38:43.790Z,35.33
2023-10-02T17:40:25.549Z,35.36
2023-10-02T17:42:01.710Z,36.41
2023-10-02T17:43:38.147Z,36.90
2023-10-02T17:45:14.783Z,36.64
2023-10-02T17:46:51.081Z,36.69
2023-10-02T17:48:26.948Z,36.73
2023-10-02T17:50:02.958Z,35.34
2023-10-02T17:51:40.594Z,36.54
2023-10-02T17:53:17.131Z,36.46
2023-10-02T17:54:53.000Z,36.84
2023-10-02T17:56:29.029Z,37.04
2023-10-02T17:58:05.324Z,36.76
2023-10-02T17:59:42.615Z,36.90
2023-10-02T18:01:18.498Z,37.56
2023-10-02T18:02:54.577Z,36.85
2023-10-02T18:04:31.046Z,38.42
2023-10-02T18:06:07.311Z,37.80
2023-10-02T18:07:47.301Z,37.28
2023-10-02T18:09:24.964Z,35.50
2023-10-02T18:11:01.245Z,38.00
2023-10-02T18:12:37.763Z,37.14
2023-10-02T18:14:14.215Z,38.16
2023-10-02T18:15:50.201Z,38.81
2023-10-02T18:17:26.580Z,37.93
2023-10-02T18:19:03.144Z,38.71
2023-10-02T18:20:45.117Z,38.89
2023-10-02T18:22:21.120Z,38.57
2023-10-02T18:23:57.057Z,38.22
2023-10-02T18:25:33.822Z,38.65
2023-10-02T18:27:09.858Z,38.90
2023-10-02T18:28:45.943Z,38.78
2023-10-02T18:30:23.850Z,38.91
2023-10-02T18:32:00.775Z,39.14
2023-10-02T18:33:36.903Z,38.74
2023-10-02T18:35:12.961Z,39.45
2023-10-02T18:36:51.366Z,39.18
2023-10-02T18:38:29.185Z,39.61
2023-10-02T18:40:10.172Z,39.58
2023-10-02T18:41:46.371Z,39.26
2023-10-02T18:43:22.351Z,39.66
2023-10-02T18:45:01.829Z,39.46
2023-10-02T18:46:39.405Z,39.02
2023-10-02T18:48:16.941Z,38.64
2023-10-02T18:49:53.180Z,39.54
2023-10-02T18:51:31.636Z,39.18
2023-10-02T18:53:07.495Z,37.57
2023-10-02T18:54:43.462Z,37.85
2023-10-02T18:56:19.424Z,38.82
2023-10-02T18:57:55.754Z,39.05
2023-10-02T18:59:31.625Z,38.79
2023-10-02T19:01:16.891Z,39.62
2023-10-02T19:02:53.008Z,39.45
2023-10-02T19:04:30.276Z,40.05
2023-10-02T19:06:06.900Z,39.79
2023-10-02T19:07:44.285Z,38.96
2023-10-02T19:09:22.120Z,39.64
2023-10-02T19:10:58.447Z,39.56
2023-10-02T19:12:35.397Z,37.81
2023-10-02T19:14:11.400Z,37.97
2023-10-02T19:15:47.586Z,40.92
2023-10-02T19:17:24.282Z,40.75
2023-10-02T19:19:00.043Z,39.82
2023-10-02T19:20:36.087Z,39.35
2023-10-02T19:22:12.082Z,39.17
2023-10-02T19:23:49.240Z,40.54
2023-10-02T19:25:25.043Z,39.79
2023-10-02T19:27:01.238Z,38.83
2023-10-02T19:28:37.464Z,37.98
2023-10-02T19:30:15.197Z,39.44
2023-10-02T19:31:52.548Z,37.87
2023-10-02T19:33:31.946Z,39.12
2023-10-02T19:35:08.191Z,39.69
2023-10-02T19:36:44.436Z,39.24
2023-10-02T19:38:22.236Z,39.05
2023-10-02T19:39:59.600Z,38.21
2023-10-02T19:41:35.755Z,39.04
2023-10-02T19:43:12.781Z,39.17
2023-10-02T19:44:50.838Z,39.32
2023-10-02T19:46:27.267Z,39.46
2023-10-02T19:48:03.839Z,38.17
2023-10-02T19:49:40.210Z,38.12
2023-10-02T19:51:16.964Z,39.54
2023-10-02T19:52:52.980Z,37.93
2023-10-02T19:54:29.293Z,36.50
2023-10-02T19:56:06.367Z,36.63
2023-10-02T19:57:42.166Z,35.80
2023-10-02T19:59:18.146Z,34.92
2023-10-02T20:00:54.173Z,35.00
2023-10-02T20:02:30.676Z,35.57
2023-10-02T20:04:06.779Z,35.02
2023-10-02T20:05:42.717Z,36.41
2023-10-02T20:07:18.690Z,36.42
2023-10-02T20:08:56.411Z,36.33
2023-10-02T20:10:32.239Z,36.78
2023-10-02T20:12:09.687Z,36.71
2023-10-02T20:13:47.493Z,38.08
2023-10-02T20:15:26.493Z,37.40
2023-10-02T20:17:03.585Z,38.39
2023-10-02T20:18:39.512Z,38.52
2023-10-02T20:20:16.104Z,38.77
2023-10-02T20:21:52.451Z,38.86
2023-10-02T20:23:37.285Z,37.58
2023-10-02T20:25:18.164Z,38.40
2023-10-02T20:26:53.880Z,39.13
2023-10-02T20:28:30.134Z,37.13
2023-10-02T20:30:06.727Z,37.51
2023-10-02T20:31:45.211Z,36.95
2023-10-02T20:33:21.393Z,35.31
2023-10-02T20:34:57.940Z,36.63
2023-10-02T20:36:33.654Z,36.18
2023-10-02T20:38:14.094Z,37.14
2023-10-02T20:39:50.004Z,38.19
2023-10-02T20:41:27.418Z,37.09
2023-10-02T20:43:03.708Z,38.87
2023-10-02T20:44:40.219Z,38.88
2023-10-02T20:46:17.000Z,38.42
2023-10-02T20:47:53.460Z,37.41
2023-10-02T20:49:29.211Z,39.05
2023-10-02T20:51:05.456Z,38.95
2023-10-02T20:52:41.293Z,39.11
2023-10-02T20:54:17.624Z,37.56
2023-10-02T20:55:56.334Z,37.30
2023-10-02T20:57:32.629Z,37.20
2023-10-02T20:59:20.387Z,36.50
2023-10-02T21:00:56.756Z,36.04
2023-10-02T21:02:33.678Z,36.91
2023-10-02T21:04:09.654Z,37.36
2023-10-02T21:05:45.664Z,37.23
2023-10-02T21:07:22.116Z,36.63
2023-10-02T21:09:01.253Z,37.42
2023-10-02T21:10:37.363Z,35.79
2023-10-02T21:12:13.071Z,35.90
2023-10-02T21:13:49.340Z,36.91
2023-10-02T21:15:25.272Z,35.46
2023-10-02T21:17:01.262Z,36.63
2023-10-02T21:18:37.063Z,38.28
2023-10-02T21:20:16.137Z,38.70
2023-10-02T21:21:53.627Z,36.25
2023-10-02T21:23:29.892Z,36.22
2023-10-02T21:25:06.267Z,37.94
2023-10-02T21:26:42.621Z,38.43
2023-10-02T21:28:19.096Z,39.08
2023-10-02T21:29:55.191Z,38.46
2023-10-02T21:31:30.970Z,38.74
2023-10-02T21:33:07.318Z,39.10
2023-10-02T21:34:43.351Z,38.84
2023-10-02T21:36:19.305Z,39.24
2023-10-02T21:37:55.889Z,39.41